Potts Camp, Mississippi
Current Conditions -  °F | °C
As of 5:55 AM on Friday 19 Dec 2014 (Local Time) from KUOX Reporting Station
Overcast Overcast  
Wind Chill: 41°   Ceiling: 3400
Heat Index: 41°   Visibility: 10mi
Dew Point: 37°   Wind: 3mph
Humidity: 87%   Direction: 20°NNE
Pressure: 30.22"   Gusts: NA
Location:  34.65°N, 89.31°W
Report Text: KUOX 191155Z AUTO 02003KT 10SM FEW022 OVC034 05/03 A3022 RMK AO2 PWINO PNO
Loading
Personal Weather Stations






























Interactive Weather Map New forecast layout! Learn more

10-Day Weather Forecast

Advertisements
Track Severe Weather on mobile